Login to view Products
 
Saturday, February 24, 2024 (19:55 UTC) 19
Fujairah International Airport
ICAO: OMFJ
IATA: FJR
  • METAR OMFJ 241900Z 20002KT 8000 NSC 23/18 Q1014 A2995=
  • TAF OMFJ 241700Z 2418/2600 VRB03KT 8000 NSC BECMG 2420/2422 29006KT BECMG 2506/2508 06010KT PROB30 TEMPO 2510/2515 RA FEW035TCU BECMG 2516/2518 29008KT=
D:\Input Parser\Destinations\Final\17\OMFJL18001700348128304.txt
2